Time;durP1;ratioP1;P1;durP2;ratioP2;P2;SDS_P1;SDS_P2;PMS_P1;PMS_P2;Temp;Humidity;BMP_temperature;BMP_pressure;BME280_temperature;BME280_humidity;BME280_pressure;Samples;Min_cycle;Max_cycle;Signal;HPM_P1;HPM_P2
2023/12/22 00:00:36;;;;;;;17.88;16.75;;;;;;;;;;4954368;28;20460;-74
2023/12/22 00:03:03;;;;;;;16.75;16.00;;;;;;;;;;4954001;28;20055;-74
2023/12/22 00:05:29;;;;;;;23.60;22.73;;;;;;;;;;4954261;28;20095;-75
2023/12/22 00:07:57;;;;;;;14.57;14.05;;;;;;;;;;4954193;28;20051;-75
2023/12/22 00:10:23;;;;;;;17.10;16.15;;;;;;;;;;4954140;28;20055;-75
2023/12/22 00:12:50;;;;;;;23.75;22.58;;;;;;;;;;4953576;28;20476;-74
2023/12/22 00:15:16;;;;;;;23.90;22.60;;;;;;;;;;4954640;28;20055;-74
2023/12/22 00:17:43;;;;;;;25.30;24.15;;;;;;;;;;4953634;28;20563;-75
2023/12/22 00:20:13;;;;;;;19.45;18.55;;;;;;;;;;4954000;28;20114;-75
2023/12/22 00:22:39;;;;;;;17.40;16.55;;;;;;;;;;4953693;28;20055;-75
2023/12/22 00:25:09;;;;;;;20.80;19.63;;;;;;;;;;4954023;28;20056;-74
2023/12/22 00:27:36;;;;;;;17.55;14.35;;;;;;;;;;4953734;28;20065;-74
2023/12/22 00:30:02;;;;;;;20.70;19.60;;;;;;;;;;4954480;28;20456;-74
2023/12/22 00:32:29;;;;;;;19.50;18.58;;;;;;;;;;4954357;28;20415;-75
2023/12/22 00:34:56;;;;;;;13.52;12.90;;;;;;;;;;4956233;28;20047;-75
2023/12/22 00:37:23;;;;;;;26.55;23.65;;;;;;;;;;4955124;28;20051;-72
2023/12/22 00:39:49;;;;;;;28.40;26.77;;;;;;;;;;4957221;28;20088;-75
2023/12/22 00:42:17;;;;;;;25.85;24.73;;;;;;;;;;4955027;28;20504;-74
2023/12/22 00:44:43;;;;;;;20.42;19.23;;;;;;;;;;4955077;28;20055;-73
2023/12/22 00:47:10;;;;;;;25.05;23.77;;;;;;;;;;4955160;28;20572;-73
2023/12/22 00:49:36;;;;;;;15.88;15.18;;;;;;;;;;4956475;28;20055;-74
2023/12/22 00:52:03;;;;;;;17.98;16.88;;;;;;;;;;4955757;28;20051;-72
2023/12/22 00:54:31;;;;;;;23.63;22.60;;;;;;;;;;4955275;28;20054;-74
2023/12/22 00:56:58;;;;;;;18.13;17.33;;;;;;;;;;4954782;28;20050;-75
2023/12/22 00:59:25;;;;;;;22.33;21.25;;;;;;;;;;4955072;28;20051;-74
2023/12/22 01:01:52;;;;;;;20.63;19.20;;;;;;;;;;4956294;28;20089;-74
2023/12/22 01:04:18;;;;;;;20.38;19.55;;;;;;;;;;4955404;28;20489;-74
2023/12/22 01:06:45;;;;;;;22.75;21.38;;;;;;;;;;4955051;28;20054;-74
2023/12/22 01:09:11;;;;;;;26.73;25.40;;;;;;;;;;4954879;28;20051;-74
2023/12/22 01:11:38;;;;;;;20.83;19.85;;;;;;;;;;4955887;28;20047;-74
2023/12/22 01:14:06;;;;;;;20.50;19.55;;;;;;;;;;4956553;28;20138;-74
2023/12/22 01:16:34;;;;;;;26.35;25.25;;;;;;;;;;4955225;28;20291;-75
2023/12/22 01:19:01;;;;;;;23.40;22.38;;;;;;;;;;4965435;28;20054;-75
2023/12/22 01:21:27;;;;;;;21.70;19.70;;;;;;;;;;4955720;28;20555;-74
2023/12/22 01:23:54;;;;;;;19.45;18.63;;;;;;;;;;4942997;28;20082;-75
2023/12/22 01:26:20;;;;;;;27.15;26.13;;;;;;;;;;4955451;28;20051;-75
2023/12/22 01:28:47;;;;;;;23.33;22.13;;;;;;;;;;4955611;28;20055;-75
2023/12/22 01:31:13;;;;;;;20.83;19.65;;;;;;;;;;4952852;28;20043;-75
2023/12/22 01:33:41;;;;;;;25.40;24.25;;;;;;;;;;4955249;28;20043;-75
2023/12/22 01:36:08;;;;;;;24.55;23.48;;;;;;;;;;4956378;28;20492;-75
2023/12/22 01:38:34;;;;;;;24.45;23.40;;;;;;;;;;4953353;28;20043;-75
2023/12/22 01:41:01;;;;;;;18.65;17.85;;;;;;;;;;4955329;28;20456;-74
2023/12/22 01:43:27;;;;;;;38.05;36.33;;;;;;;;;;4954264;28;20110;-74
2023/12/22 01:45:56;;;;;;;29.10;27.60;;;;;;;;;;4955823;28;20129;-75
2023/12/22 01:48:23;;;;;;;26.83;25.52;;;;;;;;;;4955018;28;20106;-75
2023/12/22 01:50:52;;;;;;;18.40;17.70;;;;;;;;;;4956441;28;20424;-74
2023/12/22 01:53:18;;;;;;;24.10;22.55;;;;;;;;;;4972813;28;20051;-75
2023/12/22 01:55:46;;;;;;;22.90;21.90;;;;;;;;;;4960145;28;20051;-75
2023/12/22 01:58:13;;;;;;;22.20;21.08;;;;;;;;;;4962546;28;20046;-74
2023/12/22 02:00:39;;;;;;;22.63;21.77;;;;;;;;;;4964158;28;20507;-74
2023/12/22 02:03:06;;;;;;;27.73;26.55;;;;;;;;;;4969695;28;20679;-74
2023/12/22 02:05:32;;;;;;;22.85;21.65;;;;;;;;;;4959982;28;20560;-74
2023/12/22 02:08:01;;;;;;;29.17;27.73;;;;;;;;;;4971886;28;20051;-74
2023/12/22 02:10:27;;;;;;;25.27;23.90;;;;;;;;;;4956490;28;20043;-74
2023/12/22 02:12:54;;;;;;;27.25;25.77;;;;;;;;;;4959743;28;20107;-75
2023/12/22 02:15:20;;;;;;;29.00;27.52;;;;;;;;;;4971811;28;20133;-74
2023/12/22 02:17:50;;;;;;;33.75;32.40;;;;;;;;;;4959599;28;20051;-74
2023/12/22 02:20:17;;;;;;;27.77;25.95;;;;;;;;;;4969466;28;20090;-74
2023/12/22 02:22:45;;;;;;;31.60;30.33;;;;;;;;;;4966560;28;20055;-74
2023/12/22 02:25:11;;;;;;;33.88;32.38;;;;;;;;;;4961769;28;20481;-75
2023/12/22 02:27:41;;;;;;;29.95;28.48;;;;;;;;;;4972273;28;20137;-74
2023/12/22 02:30:09;;;;;;;24.23;23.10;;;;;;;;;;4961604;28;20083;-74
2023/12/22 02:32:37;;;;;;;34.38;32.45;;;;;;;;;;4966891;28;20047;-75
2023/12/22 02:35:05;;;;;;;23.67;22.42;;;;;;;;;;4968963;28;20046;-75
2023/12/22 02:37:33;;;;;;;21.67;20.75;;;;;;;;;;4959357;28;20047;-75
2023/12/22 02:40:02;;;;;;;25.08;24.02;;;;;;;;;;4971600;28;20110;-75
2023/12/22 02:42:30;;;;;;;23.05;21.95;;;;;;;;;;4953200;28;20047;-75
2023/12/22 02:44:57;;;;;;;21.55;20.50;;;;;;;;;;4963858;28;20047;-75
2023/12/22 02:47:24;;;;;;;30.15;28.90;;;;;;;;;;4971219;28;20082;-75
2023/12/22 02:49:50;;;;;;;27.92;26.08;;;;;;;;;;4956051;28;20043;-74
2023/12/22 02:52:17;;;;;;;24.42;23.38;;;;;;;;;;4962159;28;20097;-74
2023/12/22 02:54:43;;;;;;;25.42;24.17;;;;;;;;;;4965422;28;20047;-75
2023/12/22 02:57:11;;;;;;;19.73;18.73;;;;;;;;;;4969252;28;20543;-75
2023/12/22 02:59:38;;;;;;;35.10;33.38;;;;;;;;;;4958533;28;20109;-75
2023/12/22 03:02:04;;;;;;;23.45;22.27;;;;;;;;;;4960912;28;20109;-75
2023/12/22 03:04:31;;;;;;;34.75;33.42;;;;;;;;;;4964148;28;20101;-75
2023/12/22 03:06:57;;;;;;;35.40;33.88;;;;;;;;;;4963110;28;20567;-75
2023/12/22 03:09:24;;;;;;;26.00;24.88;;;;;;;;;;4971109;28;20460;-77
2023/12/22 03:11:51;;;;;;;33.63;31.90;;;;;;;;;;4958916;28;20496;-76
2023/12/22 03:14:19;;;;;;;23.98;22.65;;;;;;;;;;4968562;28;20050;-76
2023/12/22 03:16:46;;;;;;;22.90;21.70;;;;;;;;;;4965870;28;20051;-76
2023/12/22 03:19:12;;;;;;;22.40;21.55;;;;;;;;;;4961373;28;20055;-76
2023/12/22 03:21:39;;;;;;;26.00;24.90;;;;;;;;;;4958509;28;20129;-76
2023/12/22 03:24:05;;;;;;;20.67;19.88;;;;;;;;;;4969894;28;20119;-76
2023/12/22 03:26:32;;;;;;;22.65;21.58;;;;;;;;;;4963781;28;20038;-74
2023/12/22 03:28:58;;;;;;;32.80;30.80;;;;;;;;;;4962539;28;20047;-76
2023/12/22 03:31:26;;;;;;;23.38;22.35;;;;;;;;;;4961496;28;20051;-75
2023/12/22 03:33:52;;;;;;;23.25;21.42;;;;;;;;;;4955758;28;20055;-75
2023/12/22 03:36:19;;;;;;;25.83;24.63;;;;;;;;;;4955499;28;20116;-75
2023/12/22 03:38:45;;;;;;;32.67;31.00;;;;;;;;;;4955424;28;20095;-76
2023/12/22 03:41:12;;;;;;;24.02;22.80;;;;;;;;;;4955710;28;20504;-75
2023/12/22 03:43:38;;;;;;;29.27;27.95;;;;;;;;;;4955083;28;20051;-76
2023/12/22 03:46:05;;;;;;;33.35;31.73;;;;;;;;;;4960418;28;20046;-76
2023/12/22 03:48:32;;;;;;;23.58;22.27;;;;;;;;;;4966912;28;20098;-75
2023/12/22 03:50:58;;;;;;;30.83;29.52;;;;;;;;;;4962020;28;20051;-75
2023/12/22 03:53:24;;;;;;;27.85;26.25;;;;;;;;;;4970646;28;20067;-76
2023/12/22 03:55:51;;;;;;;30.60;28.95;;;;;;;;;;4958394;28;20105;-76
2023/12/22 03:58:17;;;;;;;36.97;35.60;;;;;;;;;;4967472;28;20106;-75
2023/12/22 04:00:44;;;;;;;32.30;30.67;;;;;;;;;;4963245;28;20050;-75
2023/12/22 04:03:10;;;;;;;31.52;29.95;;;;;;;;;;4965118;28;20701;-75
2023/12/22 04:05:38;;;;;;;23.52;22.33;;;;;;;;;;4970684;28;20452;-77
2023/12/22 04:08:05;;;;;;;25.63;24.48;;;;;;;;;;4959737;28;20051;-77
2023/12/22 04:10:32;;;;;;;25.20;24.10;;;;;;;;;;4965490;28;20051;-77
2023/12/22 04:12:58;;;;;;;29.55;28.27;;;;;;;;;;4961056;28;20107;-77
2023/12/22 04:15:24;;;;;;;31.60;30.15;;;;;;;;;;4970336;28;20108;-77
2023/12/22 04:17:51;;;;;;;28.70;27.40;;;;;;;;;;4957661;28;20492;-77
2023/12/22 04:20:17;;;;;;;31.10;29.50;;;;;;;;;;4967666;28;20110;-77
2023/12/22 04:22:45;;;;;;;33.20;31.80;;;;;;;;;;4959315;28;20055;-76
2023/12/22 04:25:12;;;;;;;29.42;27.95;;;;;;;;;;4959080;28;20464;-77
2023/12/22 04:27:38;;;;;;;29.35;27.65;;;;;;;;;;4970193;28;20059;-76
2023/12/22 04:30:05;;;;;;;39.10;37.25;;;;;;;;;;4958964;28;20051;-76
2023/12/22 04:32:32;;;;;;;27.00;25.60;;;;;;;;;;4962868;28;20051;-78
2023/12/22 04:34:58;;;;;;;25.63;24.25;;;;;;;;;;4972107;28;20094;-76
2023/12/22 04:37:24;;;;;;;32.42;31.02;;;;;;;;;;4957674;28;20059;-74
2023/12/22 04:39:52;;;;;;;26.05;24.88;;;;;;;;;;4972323;28;20046;-79
2023/12/22 04:42:19;;;;;;;25.73;24.35;;;;;;;;;;4962173;28;20043;-77
2023/12/22 04:44:46;;;;;;;26.95;25.73;;;;;;;;;;4963053;28;20054;-76
2023/12/22 04:47:13;;;;;;;29.15;27.65;;;;;;;;;;4968005;28;20051;-78
2023/12/22 04:49:39;;;;;;;27.67;26.33;;;;;;;;;;4964172;28;20436;-79
2023/12/22 04:52:06;;;;;;;34.22;32.80;;;;;;;;;;4953953;28;20110;-78
2023/12/22 04:54:32;;;;;;;42.72;40.95;;;;;;;;;;4953869;28;20047;-78
2023/12/22 04:57:00;;;;;;;30.38;28.92;;;;;;;;;;4953965;28;20063;-78
2023/12/22 04:59:26;;;;;;;27.83;26.40;;;;;;;;;;4953503;28;20047;-78
2023/12/22 05:01:53;;;;;;;37.15;35.33;;;;;;;;;;4952757;28;20094;-78
2023/12/22 05:04:19;;;;;;;30.80;29.30;;;;;;;;;;4962745;28;20062;-78
2023/12/22 05:06:46;;;;;;;36.15;33.75;;;;;;;;;;4967258;28;20495;-77
2023/12/22 05:09:13;;;;;;;29.50;28.23;;;;;;;;;;4957396;28;20047;-78
2023/12/22 05:11:40;;;;;;;34.25;32.30;;;;;;;;;;4965066;28;20090;-79
2023/12/22 05:14:08;;;;;;;29.95;27.70;;;;;;;;;;4964493;28;20583;-79
2023/12/22 05:16:34;;;;;;;32.63;31.10;;;;;;;;;;4953631;28;20083;-78
2023/12/22 05:19:01;;;;;;;26.73;25.63;;;;;;;;;;4969253;28;20066;-78
2023/12/22 05:21:28;;;;;;;38.65;36.75;;;;;;;;;;4956679;28;20046;-79
2023/12/22 05:23:54;;;;;;;32.30;30.77;;;;;;;;;;4967628;28;20097;-79
2023/12/22 05:26:21;;;;;;;27.27;26.02;;;;;;;;;;4958504;28;20094;-79
2023/12/22 05:28:49;;;;;;;27.77;26.35;;;;;;;;;;4971150;28;20138;-79
2023/12/22 05:31:17;;;;;;;25.35;24.30;;;;;;;;;;4960571;28;20046;-79
2023/12/22 05:33:43;;;;;;;35.75;34.17;;;;;;;;;;4971566;28;20552;-79
2023/12/22 05:36:10;;;;;;;31.92;29.92;;;;;;;;;;4958209;28;20051;-80
2023/12/22 05:38:38;;;;;;;31.10;29.60;;;;;;;;;;4969098;28;20109;-80
2023/12/22 05:41:04;;;;;;;28.02;26.38;;;;;;;;;;4960218;28;20098;-79
2023/12/22 05:43:31;;;;;;;28.52;26.75;;;;;;;;;;4972844;28;20713;-80
2023/12/22 05:45:57;;;;;;;30.33;28.73;;;;;;;;;;4958935;28;20055;-79
2023/12/22 05:48:25;;;;;;;37.67;35.83;;;;;;;;;;4968013;28;20059;-80
2023/12/22 05:50:52;;;;;;;29.58;28.08;;;;;;;;;;4962123;28;20074;-79
2023/12/22 05:53:18;;;;;;;34.83;32.38;;;;;;;;;;4965887;28;20062;-80
2023/12/22 05:55:45;;;;;;;33.42;31.70;;;;;;;;;;4968080;28;20484;-80
2023/12/22 05:58:11;;;;;;;26.23;24.65;;;;;;;;;;4971097;28;20051;-80
2023/12/22 06:00:38;;;;;;;30.83;28.92;;;;;;;;;;4957958;28;20062;-81
2023/12/22 06:03:05;;;;;;;30.15;28.70;;;;;;;;;;4961726;28;20513;-79
2023/12/22 06:05:33;;;;;;;40.83;38.38;;;;;;;;;;4956593;28;20048;-80
2023/12/22 06:08:00;;;;;;;30.05;28.35;;;;;;;;;;4956821;28;20055;-80
2023/12/22 06:10:26;;;;;;;29.77;28.25;;;;;;;;;;4957186;28;20059;-80
2023/12/22 06:12:53;;;;;;;32.05;30.17;;;;;;;;;;4957120;28;20423;-80
2023/12/22 06:15:19;;;;;;;36.47;34.33;;;;;;;;;;4957259;28;20062;-80
2023/12/22 06:17:46;;;;;;;37.33;35.60;;;;;;;;;;4957106;28;20043;-79
2023/12/22 06:20:12;;;;;;;42.47;40.60;;;;;;;;;;4958537;28;20098;-78
2023/12/22 06:22:40;;;;;;;30.92;29.38;;;;;;;;;;4963290;28;20122;-78
2023/12/22 06:25:07;;;;;;;31.90;30.63;;;;;;;;;;4956554;28;20055;-78
2023/12/22 06:27:34;;;;;;;51.40;49.08;;;;;;;;;;4956447;28;20114;-76
2023/12/22 06:30:00;;;;;;;36.38;34.22;;;;;;;;;;4955836;28;20043;-77
2023/12/22 06:32:27;;;;;;;35.33;33.67;;;;;;;;;;4965870;28;20051;-78
2023/12/22 06:34:53;;;;;;;42.97;41.15;;;;;;;;;;4955615;28;20051;-78
2023/12/22 06:37:20;;;;;;;35.35;33.58;;;;;;;;;;4956347;28;20393;-78
2023/12/22 06:39:48;;;;;;;33.20;31.65;;;;;;;;;;4956316;28;20122;-77
2023/12/22 06:42:14;;;;;;;33.88;32.33;;;;;;;;;;4956523;28;20610;-78
2023/12/22 06:44:42;;;;;;;38.97;36.95;;;;;;;;;;4955844;28;20059;-78
2023/12/22 06:47:09;;;;;;;28.20;26.80;;;;;;;;;;4956487;28;20055;-78
2023/12/22 06:49:35;;;;;;;35.25;33.75;;;;;;;;;;4955751;28;20047;-78
2023/12/22 06:52:02;;;;;;;33.78;32.55;;;;;;;;;;4960362;28;20548;-78
2023/12/22 06:54:30;;;;;;;37.22;35.58;;;;;;;;;;4955736;28;20101;-77
2023/12/22 06:56:57;;;;;;;38.78;37.03;;;;;;;;;;4955522;28;20082;-78
2023/12/22 06:59:24;;;;;;;24.65;23.45;;;;;;;;;;4953461;28;20559;-77
2023/12/22 07:01:50;;;;;;;34.42;32.58;;;;;;;;;;4955824;28;20047;-78
2023/12/22 07:04:17;;;;;;;32.20;30.38;;;;;;;;;;4956166;28;20106;-78
2023/12/22 07:06:43;;;;;;;31.67;29.60;;;;;;;;;;4952522;28;20051;-78
2023/12/22 07:09:28;;;;;;;36.38;34.67;;;;;;;;;;4955267;28;20055;-78
2023/12/22 07:11:55;;;;;;;36.10;34.47;;;;;;;;;;4955584;28;20050;-79
2023/12/22 07:14:23;;;;;;;28.58;26.80;;;;;;;;;;4955675;28;20110;-81
2023/12/22 07:16:50;;;;;;;34.92;33.28;;;;;;;;;;4954244;28;20051;-80
2023/12/22 07:19:16;;;;;;;36.33;34.53;;;;;;;;;;4961643;28;20187;-80
2023/12/22 07:21:43;;;;;;;36.67;35.08;;;;;;;;;;4964541;28;20107;-80
2023/12/22 07:24:09;;;;;;;31.40;29.88;;;;;;;;;;4958488;28;20142;-80
2023/12/22 07:26:36;;;;;;;44.00;41.95;;;;;;;;;;4962945;28;20098;-78
2023/12/22 07:29:02;;;;;;;39.47;37.28;;;;;;;;;;4957678;28;20098;-79
2023/12/22 07:31:30;;;;;;;33.35;31.55;;;;;;;;;;4955123;28;20055;-80
2023/12/22 07:33:57;;;;;;;38.25;35.92;;;;;;;;;;4955483;28;20051;-77
2023/12/22 07:36:23;;;;;;;46.92;44.45;;;;;;;;;;4955255;28;20043;-77
2023/12/22 07:38:50;;;;;;;36.03;34.22;;;;;;;;;;4955405;28;20048;-75
2023/12/22 07:41:16;;;;;;;39.42;37.45;;;;;;;;;;4950921;28;20051;-75
2023/12/22 07:43:42;;;;;;;40.30;38.30;;;;;;;;;;4944986;28;20051;-75
2023/12/22 07:46:09;;;;;;;36.78;34.78;;;;;;;;;;4961983;28;20055;-77
2023/12/22 07:48:37;;;;;;;35.17;33.40;;;;;;;;;;4954077;28;20102;-77
2023/12/22 07:51:04;;;;;;;36.20;34.47;;;;;;;;;;4954803;28;20101;-77
2023/12/22 07:53:31;;;;;;;46.38;43.78;;;;;;;;;;4953464;28;20054;-77
2023/12/22 07:55:59;;;;;;;46.58;43.83;;;;;;;;;;4952470;28;20051;-76
2023/12/22 07:58:25;;;;;;;37.58;35.50;;;;;;;;;;4950570;28;20052;-77
2023/12/22 08:00:51;;;;;;;42.20;40.00;;;;;;;;;;4956536;28;20453;-78
2023/12/22 08:03:19;;;;;;;35.47;33.15;;;;;;;;;;4961410;28;20050;-77
2023/12/22 08:05:47;;;;;;;43.25;41.17;;;;;;;;;;4965730;28;20576;-77
2023/12/22 08:08:13;;;;;;;32.67;30.67;;;;;;;;;;4970344;28;20047;-77
2023/12/22 08:10:40;;;;;;;37.03;35.25;;;;;;;;;;4954207;28;20051;-77
2023/12/22 08:13:06;;;;;;;36.53;34.70;;;;;;;;;;4954305;28;20560;-77
2023/12/22 08:15:33;;;;;;;35.33;33.38;;;;;;;;;;4954022;28;20126;-77
2023/12/22 08:17:59;;;;;;;51.22;48.80;;;;;;;;;;4951117;28;20154;-77
2023/12/22 08:20:26;;;;;;;35.22;32.47;;;;;;;;;;4949715;28;20464;-77
2023/12/22 08:22:53;;;;;;;32.83;31.13;;;;;;;;;;4952231;28;20110;-77
2023/12/22 08:25:20;;;;;;;38.92;37.00;;;;;;;;;;4963798;28;20488;-76
2023/12/22 08:27:47;;;;;;;36.85;35.03;;;;;;;;;;4960251;28;20405;-77
2023/12/22 08:30:14;;;;;;;43.72;41.17;;;;;;;;;;4955352;28;20043;-77
2023/12/22 08:32:40;;;;;;;42.72;39.42;;;;;;;;;;4953586;28;20055;-76
2023/12/22 08:35:07;;;;;;;34.60;31.83;;;;;;;;;;4956008;28;20050;-77
2023/12/22 08:37:34;;;;;;;47.67;44.85;;;;;;;;;;4952256;28;20047;-78
2023/12/22 08:40:02;;;;;;;37.90;35.10;;;;;;;;;;4962926;28;20055;-77
2023/12/22 08:42:30;;;;;;;43.17;40.33;;;;;;;;;;4971832;28;20480;-79
2023/12/22 08:44:56;;;;;;;43.28;40.88;;;;;;;;;;4950788;28;20047;-77
2023/12/22 08:47:23;;;;;;;36.70;34.22;;;;;;;;;;4956668;28;20102;-78
2023/12/22 08:49:49;;;;;;;46.80;43.13;;;;;;;;;;4960848;28;20389;-77
2023/12/22 08:52:16;;;;;;;53.17;49.58;;;;;;;;;;4960861;28;20043;-77
2023/12/22 08:54:42;;;;;;;45.97;43.53;;;;;;;;;;4953872;28;20051;-77
2023/12/22 08:57:10;;;;;;;41.05;38.63;;;;;;;;;;4953237;28;20389;-76
2023/12/22 08:59:37;;;;;;;38.40;36.17;;;;;;;;;;4953585;28;20416;-76
2023/12/22 09:02:03;;;;;;;39.65;37.63;;;;;;;;;;4953697;28;20062;-77
2023/12/22 09:04:30;;;;;;;41.80;38.88;;;;;;;;;;4953589;28;20114;-76
2023/12/22 09:06:56;;;;;;;45.45;41.95;;;;;;;;;;4952642;28;20059;-76
2023/12/22 09:09:24;;;;;;;45.28;42.47;;;;;;;;;;4971115;28;20050;-79
2023/12/22 09:11:51;;;;;;;48.03;45.45;;;;;;;;;;4971656;28;20101;-76
2023/12/22 09:14:19;;;;;;;45.45;42.30;;;;;;;;;;4953885;28;20162;-77
2023/12/22 09:16:45;;;;;;;43.80;41.35;;;;;;;;;;4953876;28;20055;-76
2023/12/22 09:19:12;;;;;;;43.63;40.58;;;;;;;;;;4953493;28;20047;-75
2023/12/22 09:21:38;;;;;;;45.28;42.13;;;;;;;;;;4952663;28;20058;-75
2023/12/22 09:24:05;;;;;;;50.38;47.60;;;;;;;;;;4952302;28;20098;-75
2023/12/22 09:26:32;;;;;;;41.53;38.85;;;;;;;;;;4953954;28;20574;-75
2023/12/22 09:28:58;;;;;;;50.47;47.25;;;;;;;;;;4962530;28;20066;-75
2023/12/22 09:31:26;;;;;;;41.22;38.05;;;;;;;;;;4963271;28;20055;-74
2023/12/22 09:33:53;;;;;;;45.85;42.80;;;;;;;;;;4955696;28;20551;-74
2023/12/22 09:36:19;;;;;;;46.88;44.13;;;;;;;;;;4954250;28;20050;-74
2023/12/22 09:38:46;;;;;;;50.88;46.97;;;;;;;;;;4959353;28;20536;-75
2023/12/22 09:41:13;;;;;;;37.53;34.67;;;;;;;;;;4954104;28;20047;-77
2023/12/22 09:43:40;;;;;;;50.15;47.20;;;;;;;;;;4953053;28;20212;-79
2023/12/22 09:46:07;;;;;;;53.22;50.35;;;;;;;;;;4955086;28;20055;-77
2023/12/22 09:48:35;;;;;;;49.58;47.05;;;;;;;;;;4959715;28;20127;-77
2023/12/22 09:51:02;;;;;;;44.47;41.17;;;;;;;;;;4965963;28;20385;-77
2023/12/22 09:53:31;;;;;;;45.33;42.65;;;;;;;;;;4956868;28;20125;-77
2023/12/22 09:55:58;;;;;;;48.13;45.35;;;;;;;;;;4955940;28;20050;-81
2023/12/22 09:58:25;;;;;;;44.17;41.25;;;;;;;;;;4949748;28;20457;-79
2023/12/22 10:00:52;;;;;;;47.08;43.40;;;;;;;;;;4954584;28;20105;-79
2023/12/22 10:03:20;;;;;;;48.60;45.85;;;;;;;;;;4952296;28;20047;-77
2023/12/22 10:05:47;;;;;;;48.45;45.55;;;;;;;;;;4958194;28;20051;-81
2023/12/22 10:08:15;;;;;;;48.63;45.35;;;;;;;;;;4956848;28;20051;-79
2023/12/22 10:10:43;;;;;;;41.97;39.00;;;;;;;;;;4968475;28;20106;-79
2023/12/22 10:13:09;;;;;;;50.92;47.17;;;;;;;;;;4958249;28;20053;-78
2023/12/22 10:15:37;;;;;;;67.57;64.30;;;;;;;;;;4955520;28;20074;-78
2023/12/22 10:18:04;;;;;;;50.58;47.83;;;;;;;;;;4957446;28;20044;-79
2023/12/22 10:20:30;;;;;;;53.03;49.95;;;;;;;;;;4957642;28;20513;-79
2023/12/22 10:22:58;;;;;;;50.55;47.55;;;;;;;;;;4960147;28;20101;-79
2023/12/22 10:25:29;;;;;;;66.05;62.47;;;;;;;;;;4960519;28;20496;-79
2023/12/22 10:27:55;;;;;;;58.25;54.60;;;;;;;;;;4956571;28;20063;-77
2023/12/22 10:30:22;;;;;;;50.03;46.22;;;;;;;;;;4956316;28;20105;-78
2023/12/22 10:32:51;;;;;;;64.25;59.00;;;;;;;;;;4954294;28;20106;-79
2023/12/22 10:35:17;;;;;;;57.35;53.65;;;;;;;;;;4961363;28;20047;-77
2023/12/22 10:37:44;;;;;;;59.75;56.33;;;;;;;;;;4970447;28;20126;-78
2023/12/22 10:40:13;;;;;;;70.55;66.03;;;;;;;;;;4958998;28;20169;-76
2023/12/22 10:42:40;;;;;;;59.97;56.55;;;;;;;;;;4969363;28;20059;-76
2023/12/22 10:45:08;;;;;;;48.08;45.10;;;;;;;;;;4965087;28;20055;-76
2023/12/22 10:47:34;;;;;;;49.45;46.58;;;;;;;;;;4961335;28;20059;-77
2023/12/22 10:50:02;;;;;;;57.10;53.88;;;;;;;;;;4956219;28;20098;-76
2023/12/22 10:52:30;;;;;;;50.92;48.28;;;;;;;;;;4971184;28;20110;-76
2023/12/22 10:54:57;;;;;;;43.08;40.63;;;;;;;;;;4964029;28;20050;-75
2023/12/22 10:57:27;;;;;;;56.75;53.03;;;;;;;;;;4963311;28;20055;-76
2023/12/22 10:59:53;;;;;;;59.63;55.58;;;;;;;;;;4958901;28;20496;-75
2023/12/22 11:02:20;;;;;;;52.67;49.05;;;;;;;;;;4971609;28;20058;-75
2023/12/22 11:04:48;;;;;;;51.00;47.53;;;;;;;;;;4957743;28;20145;-76
2023/12/22 11:07:15;;;;;;;49.60;45.53;;;;;;;;;;4957541;28;20133;-76
2023/12/22 11:09:43;;;;;;;50.40;47.58;;;;;;;;;;4957349;28;20055;-75
2023/12/22 11:12:11;;;;;;;57.15;53.65;;;;;;;;;;4971315;28;20050;-76
2023/12/22 11:14:40;;;;;;;59.70;56.33;;;;;;;;;;4960838;28;20081;-75
2023/12/22 11:17:07;;;;;;;41.17;38.50;;;;;;;;;;4965292;28;20059;-76
2023/12/22 11:19:35;;;;;;;56.83;53.33;;;;;;;;;;4956920;28;20098;-75
2023/12/22 11:22:02;;;;;;;66.72;62.90;;;;;;;;;;4951641;28;20055;-75
2023/12/22 11:24:29;;;;;;;49.70;46.70;;;;;;;;;;4970162;28;20097;-75
2023/12/22 11:26:58;;;;;;;45.60;43.40;;;;;;;;;;4962796;28;20047;-75
2023/12/22 11:29:25;;;;;;;55.22;52.20;;;;;;;;;;4962116;28;20094;-74
2023/12/22 11:31:55;;;;;;;51.30;48.30;;;;;;;;;;4954717;28;20047;-75
2023/12/22 11:34:22;;;;;;;40.97;38.63;;;;;;;;;;4954529;28;20118;-74
2023/12/22 11:36:49;;;;;;;39.20;36.53;;;;;;;;;;4954501;28;20126;-76
2023/12/22 11:39:16;;;;;;;44.88;42.05;;;;;;;;;;4953032;28;20114;-75
2023/12/22 11:41:43;;;;;;;51.35;46.60;;;;;;;;;;4954445;28;20079;-75
2023/12/22 11:44:10;;;;;;;63.78;58.80;;;;;;;;;;4954499;28;20499;-75
2023/12/22 11:46:37;;;;;;;47.47;45.08;;;;;;;;;;4956130;28;20667;-75
2023/12/22 11:49:06;;;;;;;49.13;46.00;;;;;;;;;;4961336;28;20524;-75
2023/12/22 11:51:35;;;;;;;49.33;46.33;;;;;;;;;;4954656;28;20102;-74
2023/12/22 11:54:01;;;;;;;64.45;60.25;;;;;;;;;;4954506;28;20360;-75
2023/12/22 11:56:29;;;;;;;49.70;46.30;;;;;;;;;;4955080;28;20047;-75
2023/12/22 11:58:58;;;;;;;49.10;46.03;;;;;;;;;;4954181;28;20461;-75
2023/12/22 12:01:25;;;;;;;65.53;61.58;;;;;;;;;;4952431;28;20051;-75
2023/12/22 12:03:53;;;;;;;64.68;60.70;;;;;;;;;;4957128;28;20126;-75
2023/12/22 12:06:31;;;;;;;55.13;51.13;;;;;;;;;;4963598;28;20058;-76
2023/12/22 12:08:58;;;;;;;72.35;68.30;;;;;;;;;;4969490;28;20047;-75
2023/12/22 12:11:46;;;;;;;50.72;47.55;;;;;;;;;;4958130;28;20043;-75
2023/12/22 12:14:13;;;;;;;51.70;48.70;;;;;;;;;;4949474;28;20058;-75
2023/12/22 12:16:41;;;;;;;65.72;62.00;;;;;;;;;;4959909;28;20110;-75
2023/12/22 12:19:09;;;;;;;54.67;50.35;;;;;;;;;;4951857;28;20094;-81
2023/12/22 12:21:36;;;;;;;61.38;58.13;;;;;;;;;;4965705;28;20050;-75
2023/12/22 12:24:05;;;;;;;48.20;45.22;;;;;;;;;;4952181;28;20477;-75
2023/12/22 12:26:33;;;;;;;61.90;58.30;;;;;;;;;;4956144;28;20133;-78
2023/12/22 12:29:00;;;;;;;54.33;51.67;;;;;;;;;;4956332;28;20051;-75
2023/12/22 12:31:36;;;;;;;47.55;45.40;;;;;;;;;;4955098;28;20055;-75
2023/12/22 12:34:03;;;;;;;49.97;47.22;;;;;;;;;;4954214;28;20381;-75
2023/12/22 12:36:29;;;;;;;57.10;54.08;;;;;;;;;;4954835;28;20043;-75
2023/12/22 12:39:07;;;;;;;52.67;50.15;;;;;;;;;;4955776;28;20457;-75
2023/12/22 12:41:36;;;;;;;60.72;57.80;;;;;;;;;;4955711;28;20098;-75
2023/12/22 12:44:04;;;;;;;77.57;73.40;;;;;;;;;;4953314;28;20106;-75
2023/12/22 12:46:34;;;;;;;61.53;58.90;;;;;;;;;;4956786;28;20452;-82
2023/12/22 12:49:05;;;;;;;52.22;49.22;;;;;;;;;;4953107;28;20082;-75
2023/12/22 12:51:31;;;;;;;55.58;52.70;;;;;;;;;;4955394;28;20097;-75
2023/12/22 12:53:59;;;;;;;63.55;59.95;;;;;;;;;;4953541;28;20098;-75
2023/12/22 12:56:26;;;;;;;65.15;62.00;;;;;;;;;;4956674;28;20381;-76
2023/12/22 12:58:52;;;;;;;65.10;61.28;;;;;;;;;;4951855;28;20043;-76
2023/12/22 13:01:19;;;;;;;66.05;62.72;;;;;;;;;;4953419;28;20055;-75
2023/12/22 13:03:54;;;;;;;57.47;54.13;;;;;;;;;;4951653;28;20456;-78
2023/12/22 13:06:21;;;;;;;47.78;45.40;;;;;;;;;;4952446;28;20117;-76
2023/12/22 13:08:48;;;;;;;60.50;57.17;;;;;;;;;;4952221;28;20075;-75
2023/12/22 13:11:16;;;;;;;62.35;59.75;;;;;;;;;;4953918;28;20098;-75
2023/12/22 13:13:43;;;;;;;48.88;45.92;;;;;;;;;;4952135;28;20098;-75
2023/12/22 13:16:09;;;;;;;65.78;62.55;;;;;;;;;;4955082;28;20043;-76
2023/12/22 13:18:36;;;;;;;52.63;49.15;;;;;;;;;;4952495;28;20110;-76
2023/12/22 13:21:03;;;;;;;56.72;53.28;;;;;;;;;;4952123;28;20047;-76
2023/12/22 13:23:30;;;;;;;54.10;51.15;;;;;;;;;;4953559;28;20082;-75
2023/12/22 13:25:56;;;;;;;63.15;59.65;;;;;;;;;;4952164;28;20054;-76
2023/12/22 13:28:27;;;;;;;57.30;54.55;;;;;;;;;;4945349;28;20114;-76
2023/12/22 13:30:54;;;;;;;52.75;49.65;;;;;;;;;;4950768;29;20098;-77
2023/12/22 13:33:21;;;;;;;82.32;78.00;;;;;;;;;;4951997;28;20556;-76
2023/12/22 13:35:48;;;;;;;63.58;59.80;;;;;;;;;;4952192;28;20043;-76
2023/12/22 13:38:14;;;;;;;53.97;50.58;;;;;;;;;;4952042;28;20058;-77
2023/12/22 13:40:46;;;;;;;70.40;66.90;;;;;;;;;;4951817;28;20043;-77
2023/12/22 13:43:12;;;;;;;62.53;59.15;;;;;;;;;;4951868;28;20519;-75
2023/12/22 13:45:41;;;;;;;50.80;47.92;;;;;;;;;;4954559;28;20493;-78
2023/12/22 13:48:08;;;;;;;60.08;56.63;;;;;;;;;;4955035;29;20054;-76
2023/12/22 13:50:36;;;;;;;46.95;44.58;;;;;;;;;;4948479;28;20047;-75
2023/12/22 13:53:08;;;;;;;56.95;53.92;;;;;;;;;;4954753;28;20063;-75
2023/12/22 13:55:37;;;;;;;53.65;50.38;;;;;;;;;;4957276;28;20043;-75
2023/12/22 13:58:04;;;;;;;55.20;51.65;;;;;;;;;;4950141;28;20054;-75
2023/12/22 14:00:31;;;;;;;63.20;60.17;;;;;;;;;;4956880;28;20078;-75
2023/12/22 14:02:59;;;;;;;64.75;60.90;;;;;;;;;;4955820;28;20102;-75
2023/12/22 14:05:26;;;;;;;53.00;49.70;;;;;;;;;;4955557;28;20059;-76
2023/12/22 14:07:53;;;;;;;51.80;48.13;;;;;;;;;;4954575;28;20051;-77
2023/12/22 14:10:19;;;;;;;53.97;51.28;;;;;;;;;;4950542;28;20047;-77
2023/12/22 14:12:46;;;;;;;51.63;48.15;;;;;;;;;;4955280;28;20508;-75
2023/12/22 14:15:12;;;;;;;53.25;50.65;;;;;;;;;;4957480;28;20102;-79